Time;durP1;ratioP1;P1;durP2;ratioP2;P2;SDS_P1;SDS_P2;PMS_P1;PMS_P2;Temp;Humidity;BMP_temperature;BMP_pressure;BME280_temperature;BME280_humidity;BME280_pressure;Samples;Min_cycle;Max_cycle;Signal;HPM_P1;HPM_P2
2022/12/26 00:01:34;;;;;;;;;;;;;;;11.05;68.58;98247.03;7391257;19;19919;-68
2022/12/26 00:04:01;;;;;;;;;;;;;;;11.00;68.91;98250.16;7391485;19;19923;-68
2022/12/26 00:06:28;;;;;;;;;;;;;;;11.01;69.06;98251.00;7394129;19;19933;-68
2022/12/26 00:08:55;;;;;;;;;;;;;;;11.02;68.84;98255.28;7388022;19;19915;-68
2022/12/26 00:11:22;;;;;;;;;;;;;;;11.02;68.99;98258.75;7384708;19;19923;-70
2022/12/26 00:13:52;;;;;;;;;;;;;;;11.02;68.70;98252.66;7390073;19;19933;-69
2022/12/26 00:16:19;;;;;;;;;;;;;;;11.11;68.55;98256.94;7388745;19;19921;-68
2022/12/26 00:18:46;;;;;;;;;;;;;;;11.11;68.62;98263.09;7388477;19;19923;-68
2022/12/26 00:21:13;;;;;;;;;;;;;;;11.27;68.41;98270.25;7389815;19;19926;-68
2022/12/26 00:23:39;;;;;;;;;;;;;;;11.26;68.36;98267.75;7389790;19;19951;-69
2022/12/26 00:26:10;;;;;;;;;;;;;;;11.23;68.37;98258.31;7392003;19;20042;-69
2022/12/26 00:28:37;;;;;;;;;;;;;;;11.23;68.50;98268.91;7389153;19;19923;-69
2022/12/26 00:31:04;;;;;;;;;;;;;;;11.33;67.99;98271.41;7382613;19;19933;-69
2022/12/26 00:33:32;;;;;;;;;;;;;;;11.36;68.10;98269.25;7388442;19;19914;-69
2022/12/26 00:36:02;;;;;;;;;;;;;;;11.50;67.56;98269.59;7392489;19;19946;-69
2022/12/26 00:38:29;;;;;;;;;;;;;;;11.38;68.30;98272.59;7388989;19;20364;-69
2022/12/26 00:40:55;;;;;;;;;;;;;;;11.39;67.65;98273.41;7389029;19;19923;-70
2022/12/26 00:43:22;;;;;;;;;;;;;;;11.45;68.13;98279.88;7391628;19;19935;-70
2022/12/26 00:45:48;;;;;;;;;;;;;;;11.36;68.08;98269.25;7389860;19;19919;-69
2022/12/26 00:48:15;;;;;;;;;;;;;;;11.23;67.93;98271.56;7384242;19;20471;-69
2022/12/26 00:50:41;;;;;;;;;;;;;;;11.27;68.06;98280.00;7388759;19;19943;-69
2022/12/26 00:53:08;;;;;;;;;;;;;;;11.32;68.04;98275.03;7389233;19;19919;-69
2022/12/26 00:55:34;;;;;;;;;;;;;;;11.28;67.86;98269.25;7391153;19;19923;-69
2022/12/26 00:58:01;;;;;;;;;;;;;;;11.20;68.40;98266.59;7391302;19;19922;-69
2022/12/26 01:00:28;;;;;;;;;;;;;;;11.25;68.69;98263.47;7390922;19;19922;-69
2022/12/26 01:02:54;;;;;;;;;;;;;;;11.13;68.33;98273.50;7386702;19;19925;-69
2022/12/26 01:05:21;;;;;;;;;;;;;;;11.18;68.86;98277.31;7385508;19;19926;-70
2022/12/26 01:07:48;;;;;;;;;;;;;;;11.15;68.84;98274.19;7384189;19;19937;-69
2022/12/26 01:10:34;;;;;;;;;;;;;;;11.14;68.94;98275.19;7388183;19;19919;-69
2022/12/26 01:13:01;;;;;;;;;;;;;;;11.14;69.29;98267.25;7388158;19;20465;-69
2022/12/26 01:15:28;;;;;;;;;;;;;;;11.08;69.64;98266.03;7385437;19;19929;-68
2022/12/26 01:17:54;;;;;;;;;;;;;;;10.95;69.30;98269.19;7389342;19;19944;-69
2022/12/26 01:20:21;;;;;;;;;;;;;;;10.95;69.38;98266.53;7388980;19;19922;-69
2022/12/26 01:22:48;;;;;;;;;;;;;;;10.88;69.77;98269.97;7384705;19;19934;-69
2022/12/26 01:25:14;;;;;;;;;;;;;;;10.83;69.90;98273.09;7387645;19;20344;-69
2022/12/26 01:27:41;;;;;;;;;;;;;;;10.76;69.90;98277.34;7391027;19;19939;-69
2022/12/26 01:30:07;;;;;;;;;;;;;;;10.88;69.64;98277.91;7390099;19;19923;-69
2022/12/26 01:32:34;;;;;;;;;;;;;;;10.91;69.67;98277.59;7386679;19;19930;-69
2022/12/26 01:35:01;;;;;;;;;;;;;;;10.88;69.41;98276.09;7388699;19;19919;-69
2022/12/26 01:37:27;;;;;;;;;;;;;;;10.90;69.01;98270.63;7387947;19;19919;-69
2022/12/26 01:39:54;;;;;;;;;;;;;;;11.01;69.06;98267.69;7382743;19;20339;-69
2022/12/26 01:42:21;;;;;;;;;;;;;;;11.03;68.67;98268.34;7387686;19;19944;-69
2022/12/26 01:44:50;;;;;;;;;;;;;;;11.06;68.39;98275.13;7388977;19;19990;-69
2022/12/26 01:47:17;;;;;;;;;;;;;;;11.12;68.36;98280.63;7387406;19;19915;-69
2022/12/26 01:49:44;;;;;;;;;;;;;;;11.08;68.06;98279.28;7382678;19;19919;-69
2022/12/26 01:52:12;;;;;;;;;;;;;;;11.03;68.39;98278.94;7384317;19;19915;-69
2022/12/26 01:54:39;;;;;;;;;;;;;;;11.16;68.19;98278.47;7383072;19;19923;-69
2022/12/26 01:57:16;;;;;;;;;;;;;;;11.15;67.95;98284.78;7385936;19;20377;-69
2022/12/26 01:59:42;;;;;;;;;;;;;;;11.16;68.25;98289.94;7383420;19;19923;-69
2022/12/26 02:02:09;;;;;;;;;;;;;;;11.09;68.37;98288.06;7387145;19;19947;-69
2022/12/26 02:07:22;;;;;;;;;;;;;;;11.14;68.81;98281.31;7385985;19;19922;-69
2022/12/26 02:09:49;;;;;;;;;;;;;;;11.16;68.42;98286.41;7381368;19;19919;-70
2022/12/26 02:12:18;;;;;;;;;;;;;;;11.20;68.38;98285.94;7385264;19;19946;-69
2022/12/26 02:15:04;;;;;;;;;;;;;;;11.13;68.32;98284.94;7385762;19;19922;-70
2022/12/26 02:17:31;;;;;;;;;;;;;;;11.20;68.35;98270.06;7386471;19;19922;-69
2022/12/26 02:20:00;;;;;;;;;;;;;;;11.24;68.59;98269.72;7384490;19;20493;-69
2022/12/26 02:22:46;;;;;;;;;;;;;;;11.25;68.24;98279.34;7385286;19;20023;-69
2022/12/26 02:25:31;;;;;;;;;;;;;;;11.34;67.92;98281.00;7384383;19;19926;-69
2022/12/26 02:28:16;;;;;;;;;;;;;;;11.28;68.19;98271.91;7385890;19;19915;-69
2022/12/26 02:30:58;;;;;;;;;;;;;;;11.25;68.45;98260.81;7386394;19;19919;-69
2022/12/26 02:33:43;;;;;;;;;;;;;;;11.20;68.30;98275.34;7382792;19;19943;-69
2022/12/26 02:36:25;;;;;;;;;;;;;;;11.27;68.39;98286.13;7387379;19;19926;-69
2022/12/26 02:38:51;;;;;;;;;;;;;;;11.38;67.53;98285.81;7384380;19;19939;-68
2022/12/26 02:41:24;;;;;;;;;;;;;;;11.35;68.42;98283.50;7383978;19;20336;-69
2022/12/26 02:47:01;;;;;;;;;;;;;;;11.39;68.15;98291.94;7384486;19;19947;-68
2022/12/26 02:47:02;;;;;;;;;;;;;;;11.37;67.06;98286.81;7383200;19;19939;-69
2022/12/26 02:49:29;;;;;;;;;;;;;;;11.53;67.16;98296.63;7383606;19;19919;-69
2022/12/26 03:14:37;;;;;;;;;;;;;;;11.56;67.61;98292.81;7391984;19;19922;-69
2022/12/26 03:17:20;;;;;;;;;;;;;;;11.46;67.81;98285.00;7385288;19;19921;-69
2022/12/26 03:20:00;;;;;;;;;;;;;;;11.49;67.62;98287.31;7385546;19;19935;-69
2022/12/26 03:22:30;;;;;;;;;;;;;;;11.50;67.37;98285.50;7391065;19;20001;-68
2022/12/26 03:27:45;;;;;;;;;;;;;;;11.28;67.58;98282.50;7390923;19;19947;-69
2022/12/26 03:32:57;;;;;;;;;;;;;;;11.32;67.89;98270.59;7389052;19;19937;-69
2022/12/26 03:35:25;;;;;;;;;;;;;;;11.24;68.21;98264.44;7389134;19;19919;-68
2022/12/26 03:37:57;;;;;;;;;;;;;;;11.31;67.78;98258.31;7386452;19;20346;-68
2022/12/26 04:20:31;;;;;;;;;;;;;;;11.62;67.30;98276.25;7386782;19;19933;-69
2022/12/26 04:46:15;;;;;;;;;;;;;;;11.79;66.88;98288.50;7389857;19;19947;-69
2022/12/26 04:51:28;;;;;;;;;;;;;;;11.84;66.69;98278.22;7387363;19;19918;-68
2022/12/26 04:53:54;;;;;;;;;;;;;;;11.80;67.03;98279.56;7389891;19;19922;-69
2022/12/26 04:56:21;;;;;;;;;;;;;;;11.84;66.86;98275.56;7388765;19;19923;-69
2022/12/26 04:58:47;;;;;;;;;;;;;;;11.81;66.71;98270.63;7387199;19;19930;-68
2022/12/26 05:09:33;;;;;;;;;;;;;;;11.74;66.98;98277.59;7389579;19;20369;-68
2022/12/26 05:12:00;;;;;;;;;;;;;;;11.72;67.04;98279.56;7389847;19;19923;-69
2022/12/26 05:14:27;;;;;;;;;;;;;;;11.71;67.15;98277.91;7382033;19;19939;-69
2022/12/26 05:30:52;;;;;;;;;;;;;;;11.76;67.05;98274.75;7388086;19;19927;-68
2022/12/26 05:36:04;;;;;;;;;;;;;;;11.78;66.90;98260.34;7383561;19;19923;-68
2022/12/26 05:38:30;;;;;;;;;;;;;;;11.78;67.01;98257.69;7388572;19;19930;-69
2022/12/26 05:40:57;;;;;;;;;;;;;;;11.71;67.11;98267.28;7389166;19;19918;-68
2022/12/26 05:43:23;;;;;;;;;;;;;;;11.86;67.06;98265.69;7386636;19;19926;-68
2022/12/26 05:45:50;;;;;;;;;;;;;;;11.88;66.75;98272.66;7385626;19;20343;-68
2022/12/26 05:48:17;;;;;;;;;;;;;;;11.85;67.14;98281.72;7386381;19;19918;-69
2022/12/26 05:50:43;;;;;;;;;;;;;;;11.99;66.95;98291.69;7386617;19;20355;-68
2022/12/26 05:53:10;;;;;;;;;;;;;;;11.98;66.91;98287.38;7388212;19;19918;-69
2022/12/26 05:55:36;;;;;;;;;;;;;;;11.97;66.66;98288.38;7387116;19;19919;-68
2022/12/26 05:58:03;;;;;;;;;;;;;;;11.94;66.97;98290.53;7389136;19;19930;-69
2022/12/26 06:00:29;;;;;;;;;;;;;;;11.95;66.91;98294.81;7390342;19;19933;-68
2022/12/26 06:02:57;;;;;;;;;;;;;;;11.94;66.80;98288.69;7386105;19;20012;-68
2022/12/26 06:05:24;;;;;;;;;;;;;;;11.95;66.94;98293.00;7383738;19;20385;-68
2022/12/26 06:07:51;;;;;;;;;;;;;;;11.95;66.60;98284.22;7387910;19;19923;-69
2022/12/26 06:10:17;;;;;;;;;;;;;;;12.06;66.47;98291.84;7389700;19;19961;-68
2022/12/26 06:12:45;;;;;;;;;;;;;;;12.06;66.90;98297.97;7388922;19;19931;-68
2022/12/26 06:15:11;;;;;;;;;;;;;;;11.96;66.62;98291.19;7385002;19;19914;-69
2022/12/26 06:17:38;;;;;;;;;;;;;;;12.05;66.20;98290.19;7389087;19;19919;-69
2022/12/26 06:20:05;;;;;;;;;;;;;;;11.95;66.26;98287.69;7383227;19;19918;-69
2022/12/26 06:22:31;;;;;;;;;;;;;;;12.02;66.11;98286.03;7383780;19;19923;-69
2022/12/26 06:24:58;;;;;;;;;;;;;;;12.00;66.28;98295.97;7386394;19;20302;-68
2022/12/26 06:27:25;;;;;;;;;;;;;;;11.96;66.42;98291.19;7385630;19;19922;-68
2022/12/26 06:29:51;;;;;;;;;;;;;;;12.09;66.08;98286.22;7384691;19;19914;-68
2022/12/26 06:32:18;;;;;;;;;;;;;;;12.04;66.31;98293.84;7392316;19;20343;-68
2022/12/26 06:34:44;;;;;;;;;;;;;;;12.08;65.63;98292.50;7392053;19;19925;-69
2022/12/26 06:37:11;;;;;;;;;;;;;;;12.08;65.74;98303.09;7391812;19;20380;-68
2022/12/26 06:39:37;;;;;;;;;;;;;;;12.18;65.60;98300.28;7388832;19;19930;-69
2022/12/26 06:42:04;;;;;;;;;;;;;;;12.16;65.67;98294.31;7394651;19;19925;-68
2022/12/26 06:44:30;;;;;;;;;;;;;;;12.10;65.88;98290.50;7392963;19;19943;-69
2022/12/26 06:46:57;;;;;;;;;;;;;;;12.13;65.60;98286.69;7393964;19;19922;-68
2022/12/26 06:49:25;;;;;;;;;;;;;;;12.22;65.61;98289.19;7390463;19;19939;-68
2022/12/26 06:51:58;;;;;;;;;;;;;;;12.19;65.40;98297.47;7394150;19;20474;-68
2022/12/26 06:54:24;;;;;;;;;;;;;;;12.17;65.87;98299.47;7392368;19;19918;-68
2022/12/26 06:56:51;;;;;;;;;;;;;;;12.17;65.96;98298.63;7391070;19;22390;-68
2022/12/26 06:59:18;;;;;;;;;;;;;;;12.20;65.54;98298.31;7386478;19;19930;-69
2022/12/26 07:01:44;;;;;;;;;;;;;;;12.17;65.54;98293.34;7396419;19;19974;-68
2022/12/26 07:04:11;;;;;;;;;;;;;;;12.32;65.81;98302.25;7395742;19;20431;-68
2022/12/26 07:06:38;;;;;;;;;;;;;;;12.25;65.81;98303.94;7394113;19;19943;-69
2022/12/26 07:09:05;;;;;;;;;;;;;;;12.25;65.35;98299.44;7390728;19;20011;-68
2022/12/26 07:11:33;;;;;;;;;;;;;;;12.35;65.85;98312.53;7393227;19;19919;-68
2022/12/26 07:14:00;;;;;;;;;;;;;;;12.38;65.08;98306.91;7386104;19;20378;-69
2022/12/26 07:16:26;;;;;;;;;;;;;;;12.35;65.45;98304.59;7392494;19;20343;-68
2022/12/26 07:18:54;;;;;;;;;;;;;;;12.33;65.59;98314.53;7389698;19;19923;-68
2022/12/26 07:21:20;;;;;;;;;;;;;;;12.34;65.70;98305.56;7392479;19;19982;-69
2022/12/26 07:23:47;;;;;;;;;;;;;;;12.35;65.30;98301.06;7394913;19;19922;-68
2022/12/26 07:26:13;;;;;;;;;;;;;;;12.37;65.16;98296.44;7393085;19;19918;-69
2022/12/26 07:28:40;;;;;;;;;;;;;;;12.28;65.17;98306.25;7385097;19;20358;-68
2022/12/26 07:31:07;;;;;;;;;;;;;;;12.33;65.18;98311.06;7391961;19;19918;-69
2022/12/26 07:33:33;;;;;;;;;;;;;;;12.26;65.10;98314.34;7394606;19;19918;-68
2022/12/26 07:36:00;;;;;;;;;;;;;;;12.42;65.89;98315.34;7392276;19;19919;-68
2022/12/26 07:38:27;;;;;;;;;;;;;;;12.24;65.45;98310.22;7388511;19;19941;-68
2022/12/26 07:40:54;;;;;;;;;;;;;;;12.36;65.52;98310.72;7392211;19;19931;-68
2022/12/26 07:43:21;;;;;;;;;;;;;;;12.27;65.14;98310.72;7391679;19;19915;-68
2022/12/26 07:45:49;;;;;;;;;;;;;;;12.34;65.07;98310.88;7388413;19;19923;-68
2022/12/26 07:48:15;;;;;;;;;;;;;;;12.51;65.26;98306.38;7389301;19;19929;-68
2022/12/26 07:50:45;;;;;;;;;;;;;;;12.52;65.95;98322.09;7391998;19;19923;-68
2022/12/26 07:53:13;;;;;;;;;;;;;;;12.58;65.23;98323.25;7392334;19;19925;-68
2022/12/26 07:55:39;;;;;;;;;;;;;;;12.50;65.65;98316.13;7392154;19;19947;-68
2022/12/26 07:58:06;;;;;;;;;;;;;;;12.32;65.23;98320.00;7392578;19;19937;-69
2022/12/26 08:00:32;;;;;;;;;;;;;;;12.54;65.13;98318.47;7387178;19;20358;-69
2022/12/26 08:02:59;;;;;;;;;;;;;;;12.50;64.95;98326.75;7389304;19;19923;-68
2022/12/26 08:05:33;;;;;;;;;;;;;;;12.45;64.71;98325.59;7391674;19;19915;-68
2022/12/26 08:07:59;;;;;;;;;;;;;;;12.55;64.71;98325.44;7389425;19;20289;-68
2022/12/26 08:10:26;;;;;;;;;;;;;;;12.54;64.91;98329.09;7390917;19;20336;-68
2022/12/26 08:12:53;;;;;;;;;;;;;;;12.53;64.87;98322.94;7393488;19;19951;-69
2022/12/26 08:15:19;;;;;;;;;;;;;;;12.54;65.32;98324.59;7390250;19;19922;-69
2022/12/26 08:17:46;;;;;;;;;;;;;;;12.31;65.48;98324.47;7388848;19;19919;-69
2022/12/26 08:20:12;;;;;;;;;;;;;;;12.38;65.06;98322.00;7388607;19;19923;-68
2022/12/26 08:22:39;;;;;;;;;;;;;;;12.18;65.73;98324.97;7387004;19;19915;-69
2022/12/26 08:25:06;;;;;;;;;;;;;;;12.38;65.70;98327.28;7390893;19;19925;-69
2022/12/26 08:27:33;;;;;;;;;;;;;;;12.49;66.35;98333.06;7390873;19;19990;-69
2022/12/26 08:29:59;;;;;;;;;;;;;;;12.56;66.16;98333.22;7386837;19;19925;-69
2022/12/26 08:32:26;;;;;;;;;;;;;;;12.55;66.98;98349.31;7389555;19;19915;-69
2022/12/26 08:34:52;;;;;;;;;;;;;;;12.50;66.34;98349.81;7386640;19;19927;-69
2022/12/26 08:37:19;;;;;;;;;;;;;;;12.30;66.41;98339.56;7386920;19;20367;-69
2022/12/26 08:39:47;;;;;;;;;;;;;;;12.33;65.90;98356.97;7387183;19;20980;-68
2022/12/26 08:42:14;;;;;;;;;;;;;;;12.38;66.54;98359.13;7394144;19;19951;-69
2022/12/26 08:44:40;;;;;;;;;;;;;;;12.34;66.90;98361.28;7391498;19;20324;-68
2022/12/26 08:47:07;;;;;;;;;;;;;;;12.20;67.12;98367.25;7389302;19;19914;-69
2022/12/26 08:49:34;;;;;;;;;;;;;;;12.23;67.32;98381.00;7390493;19;19923;-68
2022/12/26 08:52:00;;;;;;;;;;;;;;;12.16;67.46;98382.66;7387635;19;19933;-68
2022/12/26 08:54:27;;;;;;;;;;;;;;;12.18;67.95;98382.50;7381855;19;20450;-69
2022/12/26 08:56:53;;;;;;;;;;;;;;;12.17;67.96;98394.13;7391248;19;19915;-68
2022/12/26 08:59:20;;;;;;;;;;;;;;;12.10;68.75;98401.06;7389715;19;20012;-69
2022/12/26 09:01:46;;;;;;;;;;;;;;;12.07;68.89;98402.22;7387447;19;20571;-69
2022/12/26 09:04:13;;;;;;;;;;;;;;;11.98;68.61;98414.66;7390223;19;19923;-69
2022/12/26 09:06:40;;;;;;;;;;;;;;;11.78;70.09;98423.84;7388912;19;19990;-69
2022/12/26 09:09:07;;;;;;;;;;;;;;;11.67;71.66;98437.41;7385972;19;19974;-69
2022/12/26 09:11:33;;;;;;;;;;;;;;;11.41;73.43;98449.72;7387402;19;20260;-70
2022/12/26 09:14:01;;;;;;;;;;;;;;;11.36;74.09;98448.53;7388590;19;20339;-69
2022/12/26 09:16:28;;;;;;;;;;;;;;;11.11;75.38;98450.22;7389400;19;19922;-69
2022/12/26 09:19:03;;;;;;;;;;;;;;;11.01;75.91;98455.66;7387658;19;19911;-69
2022/12/26 09:21:30;;;;;;;;;;;;;;;10.80;77.03;98463.97;7387469;19;19919;-69
2022/12/26 09:23:57;;;;;;;;;;;;;;;10.89;77.02;98455.06;7387290;19;19927;-70
2022/12/26 09:26:24;;;;;;;;;;;;;;;10.85;77.27;98466.97;7385877;19;19939;-69
2022/12/26 09:28:50;;;;;;;;;;;;;;;10.86;77.86;98465.16;7388950;19;20301;-70
2022/12/26 09:31:18;;;;;;;;;;;;;;;10.79;78.31;98474.69;7387635;19;19917;-70
2022/12/26 09:33:48;;;;;;;;;;;;;;;10.97;77.82;98459.59;7384999;19;19919;-69
2022/12/26 09:36:19;;;;;;;;;;;;;;;10.92;78.23;98459.22;7391724;19;20015;-70
2022/12/26 09:38:46;;;;;;;;;;;;;;;11.01;78.26;98465.41;7387770;19;19919;-69
2022/12/26 09:41:32;;;;;;;;;;;;;;;11.08;77.94;98472.56;7382764;19;20022;-70
2022/12/26 09:44:13;;;;;;;;;;;;;;;11.10;78.15;98483.00;7382214;19;19921;-70
2022/12/26 09:46:46;;;;;;;;;;;;;;;11.02;78.18;98493.53;7388440;19;19917;-70
2022/12/26 09:49:17;;;;;;;;;;;;;;;10.93;78.70;98505.91;7384818;19;19957;-69
2022/12/26 09:51:45;;;;;;;;;;;;;;;10.78;79.20;98508.25;7384314;19;19927;-69
2022/12/26 09:54:18;;;;;;;;;;;;;;;10.96;78.83;98524.94;7384741;19;19927;-70
2022/12/26 09:56:44;;;;;;;;;;;;;;;10.97;78.66;98534.53;7386572;19;20248;-70
2022/12/26 09:59:28;;;;;;;;;;;;;;;11.03;78.64;98533.09;7384443;19;19927;-70
2022/12/26 10:01:54;;;;;;;;;;;;;;;10.92;79.03;98528.88;7384007;19;19919;-70
2022/12/26 10:04:23;;;;;;;;;;;;;;;10.94;79.17;98526.91;7389276;19;19918;-70
2022/12/26 10:06:55;;;;;;;;;;;;;;;10.69;80.41;98527.69;7382845;19;19987;-70
2022/12/26 10:09:21;;;;;;;;;;;;;;;10.76;80.33;98531.41;7385919;19;19947;-70
2022/12/26 10:11:52;;;;;;;;;;;;;;;10.87;80.07;98525.84;7382545;19;19996;-71
2022/12/26 10:14:27;;;;;;;;;;;;;;;10.86;80.04;98537.44;7383925;19;19914;-71
2022/12/26 10:17:13;;;;;;;;;;;;;;;10.75;80.27;98529.75;7383520;19;19919;-71
2022/12/26 10:19:40;;;;;;;;;;;;;;;10.90;80.00;98532.66;7385088;19;19929;-71
2022/12/26 10:22:21;;;;;;;;;;;;;;;10.73;80.48;98519.31;7386685;19;20259;-71
2022/12/26 10:24:47;;;;;;;;;;;;;;;10.95;80.03;98498.63;7385162;19;19950;-71
2022/12/26 10:27:15;;;;;;;;;;;;;;;11.03;79.81;98501.31;7386593;19;20746;-71
2022/12/26 10:29:44;;;;;;;;;;;;;;;11.08;80.12;98511.44;7383834;19;19930;-70
2022/12/26 10:32:13;;;;;;;;;;;;;;;11.09;79.97;98519.25;7382292;19;19930;-71
2022/12/26 10:34:40;;;;;;;;;;;;;;;11.03;80.43;98519.03;7378085;19;19923;-71
2022/12/26 10:37:10;;;;;;;;;;;;;;;11.10;80.07;98522.72;7384981;19;19962;-71
2022/12/26 10:39:55;;;;;;;;;;;;;;;11.10;80.03;98522.72;7386913;19;19919;-71
2022/12/26 10:42:23;;;;;;;;;;;;;;;11.13;80.04;98517.09;7386221;19;19919;-70
2022/12/26 10:44:50;;;;;;;;;;;;;;;11.15;79.88;98525.72;7383734;19;19951;-71
2022/12/26 10:47:24;;;;;;;;;;;;;;;11.19;80.01;98513.84;7383423;19;19921;-71
2022/12/26 10:49:50;;;;;;;;;;;;;;;11.25;79.70;98523.81;7380392;19;20365;-71
2022/12/26 10:52:18;;;;;;;;;;;;;;;11.21;79.95;98531.22;7386472;19;20716;-70
2022/12/26 10:54:45;;;;;;;;;;;;;;;11.27;79.65;98535.09;7381892;19;20348;-70
2022/12/26 10:57:11;;;;;;;;;;;;;;;11.32;79.47;98531.94;7383510;19;19919;-70
2022/12/26 10:59:45;;;;;;;;;;;;;;;11.26;80.15;98529.94;7385112;19;19927;-70
2022/12/26 11:02:21;;;;;;;;;;;;;;;11.30;79.94;98534.78;7387017;19;19929;-70
2022/12/26 11:04:58;;;;;;;;;;;;;;;11.34;79.75;98538.75;7381359;19;20362;-70
2022/12/26 11:07:49;;;;;;;;;;;;;;;11.45;79.83;98542.13;7382539;19;19923;-70
2022/12/26 11:10:17;;;;;;;;;;;;;;;11.47;79.73;98546.28;7384485;19;19923;-70
2022/12/26 11:12:49;;;;;;;;;;;;;;;11.54;79.75;98534.06;7384870;19;20380;-70
2022/12/26 11:15:33;;;;;;;;;;;;;;;11.42;80.24;98528.19;7379184;19;19918;-70
2022/12/26 11:18:14;;;;;;;;;;;;;;;11.38;80.06;98504.84;7386314;19;19926;-69
2022/12/26 11:20:41;;;;;;;;;;;;;;;11.24;80.14;98511.53;7391074;19;19930;-70
2022/12/26 11:23:27;;;;;;;;;;;;;;;11.32;79.93;98511.63;7389709;19;19911;-70
2022/12/26 11:25:58;;;;;;;;;;;;;;;11.40;79.78;98509.00;7388876;19;20358;-70
2022/12/26 11:28:30;;;;;;;;;;;;;;;11.41;80.12;98486.00;7392595;19;19926;-70
2022/12/26 11:30:58;;;;;;;;;;;;;;;11.38;79.94;98492.44;7393543;19;19933;-70
2022/12/26 11:33:30;;;;;;;;;;;;;;;11.39;79.82;98482.66;7392359;19;19955;-70
2022/12/26 11:36:00;;;;;;;;;;;;;;;11.27;80.31;98466.22;7386585;19;19927;-70
2022/12/26 11:38:38;;;;;;;;;;;;;;;11.20;80.20;98475.78;7388335;19;19923;-69
2022/12/26 11:41:30;;;;;;;;;;;;;;;11.34;79.94;98493.72;7386938;19;19967;-70
2022/12/26 11:43:59;;;;;;;;;;;;;;;11.42;79.60;98504.34;7391662;19;19918;-69
2022/12/26 11:46:34;;;;;;;;;;;;;;;11.38;79.74;98512.81;7391112;19;19919;-69
2022/12/26 11:49:00;;;;;;;;;;;;;;;11.35;79.33;98506.00;7384493;19;19957;-70
2022/12/26 11:51:33;;;;;;;;;;;;;;;11.32;79.38;98508.09;7391201;19;19919;-69
2022/12/26 11:54:11;;;;;;;;;;;;;;;11.25;79.86;98523.81;7390121;19;19927;-70
2022/12/26 11:56:37;;;;;;;;;;;;;;;11.34;79.71;98509.63;7386988;19;19923;-70
2022/12/26 11:59:17;;;;;;;;;;;;;;;11.42;79.35;98488.47;7387579;19;19923;-70
2022/12/26 12:01:43;;;;;;;;;;;;;;;11.34;79.48;98490.25;7392705;19;20296;-69
2022/12/26 12:04:10;;;;;;;;;;;;;;;11.35;79.31;98489.28;7388328;19;19953;-70
2022/12/26 12:06:42;;;;;;;;;;;;;;;11.41;78.92;98497.41;7391476;19;19943;-70
2022/12/26 12:09:11;;;;;;;;;;;;;;;11.35;79.09;98490.09;7388006;19;19919;-70
2022/12/26 12:11:53;;;;;;;;;;;;;;;11.49;78.73;98483.38;7386880;19;20200;-70
2022/12/26 12:14:20;;;;;;;;;;;;;;;11.62;78.71;98475.81;7387315;19;19922;-70
2022/12/26 12:16:47;;;;;;;;;;;;;;;11.71;78.59;98479.31;7392079;19;19926;-70
2022/12/26 12:19:19;;;;;;;;;;;;;;;11.74;78.49;98473.72;7384909;19;20347;-70
2022/12/26 12:22:09;;;;;;;;;;;;;;;11.82;78.23;98479.03;7390944;19;19925;-70
2022/12/26 12:24:43;;;;;;;;;;;;;;;11.95;78.18;98501.63;7391239;19;19928;-70
2022/12/26 12:27:19;;;;;;;;;;;;;;;12.02;77.94;98502.66;7389886;19;19918;-70
2022/12/26 12:29:58;;;;;;;;;;;;;;;11.88;77.64;98506.75;7381170;19;19926;-70
2022/12/26 12:32:27;;;;;;;;;;;;;;;11.82;77.44;98488.78;7388480;19;19947;-70
2022/12/26 12:35:03;;;;;;;;;;;;;;;11.88;77.65;98497.97;7389492;19;19918;-70
2022/12/26 12:37:38;;;;;;;;;;;;;;;12.00;77.24;98491.38;7391320;19;19919;-70
2022/12/26 12:40:21;;;;;;;;;;;;;;;11.97;77.40;98487.22;7386172;19;19926;-70
2022/12/26 12:43:03;;;;;;;;;;;;;;;11.98;77.28;98488.03;7388669;19;19928;-70
2022/12/26 12:45:35;;;;;;;;;;;;;;;11.88;77.32;98490.03;7388092;19;19947;-70
2022/12/26 12:48:09;;;;;;;;;;;;;;;11.71;77.63;98489.91;7384197;19;19933;-70
2022/12/26 12:50:35;;;;;;;;;;;;;;;11.70;77.55;98490.91;7386495;19;19919;-70
2022/12/26 12:53:37;;;;;;;;;;;;;;;11.76;77.20;98484.97;7392002;19;19933;-70
2022/12/26 12:56:06;;;;;;;;;;;;;;;11.56;77.11;98487.06;7384076;19;20609;-70
2022/12/26 12:58:39;;;;;;;;;;;;;;;11.54;76.97;98482.91;7388154;19;19942;-70
2022/12/26 13:01:08;;;;;;;;;;;;;;;11.53;77.25;98483.88;7386347;19;19926;-70
2022/12/26 13:03:46;;;;;;;;;;;;;;;11.52;77.03;98485.69;7381067;19;19943;-71
2022/12/26 13:06:13;;;;;;;;;;;;;;;11.57;76.98;98487.88;7389326;19;20336;-70
2022/12/26 13:08:39;;;;;;;;;;;;;;;11.49;77.40;98488.69;7389395;19;19923;-70
2022/12/26 13:11:08;;;;;;;;;;;;;;;11.58;77.11;98486.88;7387111;19;19923;-70
2022/12/26 13:13:42;;;;;;;;;;;;;;;11.53;76.88;98476.78;7389451;19;19927;-70
2022/12/26 13:16:19;;;;;;;;;;;;;;;11.41;77.58;98486.00;7387754;19;19991;-70
2022/12/26 13:18:54;;;;;;;;;;;;;;;11.54;77.34;98485.56;7382579;19;19927;-70
2022/12/26 13:21:21;;;;;;;;;;;;;;;11.44;77.29;98477.72;7381420;19;20001;-70
2022/12/26 13:26:36;;;;;;;;;;;;;;;11.31;77.00;98483.44;7387647;19;20358;-69
2022/12/26 13:29:11;;;;;;;;;;;;;;;11.51;76.96;98469.97;7385560;19;19927;-69
2022/12/26 13:31:38;;;;;;;;;;;;;;;11.42;77.02;98458.50;7384222;19;19927;-69
2022/12/26 13:34:06;;;;;;;;;;;;;;;11.51;77.05;98456.72;7380822;19;20356;-69
2022/12/26 13:36:36;;;;;;;;;;;;;;;11.52;77.04;98466.34;7384772;19;20373;-69
2022/12/26 13:39:03;;;;;;;;;;;;;;;11.58;76.87;98458.56;7385931;19;19923;-69
2022/12/26 13:44:17;;;;;;;;;;;;;;;11.50;76.36;98460.34;7390183;19;19918;-70
2022/12/26 13:46:44;;;;;;;;;;;;;;;11.61;76.28;98470.66;7389227;19;19926;-70
2022/12/26 13:49:29;;;;;;;;;;;;;;;11.59;76.16;98460.22;7385621;19;19919;-70
2022/12/26 13:51:57;;;;;;;;;;;;;;;11.45;75.89;98460.81;7385036;19;20010;-70
2022/12/26 13:54:24;;;;;;;;;;;;;;;11.57;75.78;98458.72;7382026;19;19918;-70
2022/12/26 13:56:57;;;;;;;;;;;;;;;11.54;76.11;98456.41;7385691;19;19927;-70
2022/12/26 13:59:26;;;;;;;;;;;;;;;11.63;75.40;98461.56;7389125;19;20288;-69
2022/12/26 14:02:11;;;;;;;;;;;;;;;11.66;75.86;98476.31;7380960;19;19956;-70
2022/12/26 14:04:59;;;;;;;;;;;;;;;11.63;75.32;98466.84;7386021;19;19986;-70
2022/12/26 14:07:31;;;;;;;;;;;;;;;11.36;75.36;98469.75;7387218;19;20265;-70
2022/12/26 14:10:01;;;;;;;;;;;;;;;11.45;75.52;98462.66;7382678;19;19927;-70
2022/12/26 14:12:37;;;;;;;;;;;;;;;11.48;75.35;98459.69;7386566;19;19916;-70
2022/12/26 14:15:04;;;;;;;;;;;;;;;11.49;75.40;98456.88;7383050;19;19918;-70
2022/12/26 14:17:42;;;;;;;;;;;;;;;11.59;75.38;98451.47;7385257;19;19915;-70
2022/12/26 14:20:27;;;;;;;;;;;;;;;11.46;75.35;98457.22;7388290;19;19917;-70
2022/12/26 14:23:25;;;;;;;;;;;;;;;11.49;75.73;98454.22;7387539;19;19927;-70
2022/12/26 14:25:56;;;;;;;;;;;;;;;11.26;75.77;98459.25;7374423;19;19915;-70
2022/12/26 14:28:27;;;;;;;;;;;;;;;11.36;75.78;98456.50;7383813;19;19929;-70
2022/12/26 14:30:53;;;;;;;;;;;;;;;11.43;75.82;98461.00;7388571;19;19923;-70
2022/12/26 14:33:26;;;;;;;;;;;;;;;11.42;75.68;98443.44;7386928;19;19930;-70
2022/12/26 14:36:08;;;;;;;;;;;;;;;11.34;75.93;98445.22;7381815;19;20289;-70
2022/12/26 14:38:53;;;;;;;;;;;;;;;11.38;75.89;98452.69;7387797;19;19931;-70
2022/12/26 14:44:15;;;;;;;;;;;;;;;11.35;75.85;98450.38;7382377;19;19926;-70
2022/12/26 14:46:42;;;;;;;;;;;;;;;11.39;75.98;98442.94;7383630;19;19927;-70
2022/12/26 14:49:20;;;;;;;;;;;;;;;11.24;76.24;98455.94;7384274;19;19923;-69
2022/12/26 14:51:47;;;;;;;;;;;;;;;11.30;76.43;98452.66;7385299;19;19937;-70
2022/12/26 14:54:31;;;;;;;;;;;;;;;11.27;76.43;98449.47;7393975;19;19986;-70
2022/12/26 14:56:57;;;;;;;;;;;;;;;11.37;75.89;98451.06;7387069;19;19922;-70
2022/12/26 14:59:26;;;;;;;;;;;;;;;11.25;76.34;98449.66;7388104;19;20359;-70
2022/12/26 15:02:00;;;;;;;;;;;;;;;11.36;76.03;98444.06;7388229;19;19923;-70
2022/12/26 15:04:42;;;;;;;;;;;;;;;11.29;76.08;98435.09;7393397;19;19923;-70
2022/12/26 15:07:21;;;;;;;;;;;;;;;11.17;76.47;98436.38;7395130;19;19919;-69
2022/12/26 15:09:56;;;;;;;;;;;;;;;11.24;76.51;98437.38;7391563;19;19918;-69
2022/12/26 15:12:41;;;;;;;;;;;;;;;11.28;76.03;98436.09;7394507;19;19960;-69
2022/12/26 15:15:17;;;;;;;;;;;;;;;11.24;76.27;98426.78;7390204;19;19915;-69